SVA501 OKKK-OEJN
Flight info
| Callsign | SVA501 |
|---|---|
| Flight time | N/A |
| Altitude | 30000 |
| Route | DEKOB1J DEKOB P517 KSB B417 GAS G674 PMA B544 RBG/N0467F310 B544 NOMDA NOMDA1A |
| Aircraft | A320/M-SDE3FGHIRWY/LB1 |
Departure
| Time | 2026-05-08 20:39 |
|---|---|
| Airport | Kuwait International Airport (OKKK) |
Arrival
| Time | N/A |
|---|---|
| Airport | King Abdulaziz International Airport (OEJN) |
| Time | Latitude | Longitude | Altitude | Speed | Heading |
|---|---|---|---|---|---|
| 2026-05-08 20:14 | 29.23775 | 47.97174 | 156 ft | 0 kts | 54° |
| 2026-05-08 20:25 | 29.23771 | 47.97167 | 156 ft | 3 kts | 54° |
| 2026-05-08 20:25 | 29.23761 | 47.97151 | 156 ft | 3 kts | 54° |
| 2026-05-08 20:26 | 29.23750 | 47.97134 | 155 ft | 3 kts | 57° |
| 2026-05-08 20:26 | 29.23743 | 47.97115 | 155 ft | 3 kts | 86° |
| 2026-05-08 20:26 | 29.23746 | 47.97095 | 155 ft | 3 kts | 123° |
| 2026-05-08 20:26 | 29.23758 | 47.97080 | 154 ft | 3 kts | 155° |
| 2026-05-08 20:27 | 29.23760 | 47.97078 | 154 ft | 0 kts | 160° |
| 2026-05-08 20:28 | 29.23741 | 47.97087 | 154 ft | 4 kts | 159° |
| 2026-05-08 20:28 | 29.23711 | 47.97100 | 155 ft | 6 kts | 157° |
| 2026-05-08 20:29 | 29.23677 | 47.97117 | 155 ft | 5 kts | 155° |
| 2026-05-08 20:29 | 29.23653 | 47.97134 | 155 ft | 3 kts | 143° |
| 2026-05-08 20:29 | 29.23641 | 47.97145 | 155 ft | 1 kts | 141° |
| 2026-05-08 20:29 | 29.23619 | 47.97167 | 156 ft | 6 kts | 141° |
| 2026-05-08 20:30 | 29.23580 | 47.97193 | 156 ft | 9 kts | 154° |
| 2026-05-08 20:30 | 29.23527 | 47.97221 | 157 ft | 8 kts | 155° |
| 2026-05-08 20:30 | 29.23459 | 47.97247 | 158 ft | 10 kts | 184° |
| 2026-05-08 20:30 | 29.23417 | 47.97191 | 157 ft | 9 kts | 246° |
| 2026-05-08 20:31 | 29.23389 | 47.97127 | 156 ft | 9 kts | 232° |
| 2026-05-08 20:31 | 29.23329 | 47.97114 | 157 ft | 12 kts | 161° |
| 2026-05-08 20:31 | 29.23264 | 47.97107 | 157 ft | 9 kts | 229° |
| 2026-05-08 20:31 | 29.23236 | 47.97046 | 157 ft | 8 kts | 245° |
| 2026-05-08 20:32 | 29.23209 | 47.96987 | 157 ft | 8 kts | 228° |
| 2026-05-08 20:32 | 29.23155 | 47.96985 | 158 ft | 13 kts | 156° |
| 2026-05-08 20:32 | 29.23076 | 47.97027 | 158 ft | 11 kts | 155° |
| 2026-05-08 20:32 | 29.22988 | 47.97051 | 160 ft | 26 kts | 181° |
| 2026-05-08 20:33 | 29.22813 | 47.97055 | 163 ft | 17 kts | 156° |
| 2026-05-08 20:33 | 29.22710 | 47.97109 | 164 ft | 15 kts | 154° |
| 2026-05-08 20:33 | 29.22603 | 47.97166 | 165 ft | 20 kts | 156° |
| 2026-05-08 20:33 | 29.22484 | 47.97230 | 167 ft | 17 kts | 154° |
| 2026-05-08 20:34 | 29.22382 | 47.97285 | 168 ft | 15 kts | 154° |
| 2026-05-08 20:34 | 29.22283 | 47.97337 | 170 ft | 16 kts | 155° |
| 2026-05-08 20:34 | 29.22105 | 47.97433 | 171 ft | 14 kts | 154° |
| 2026-05-08 20:35 | 29.22003 | 47.97488 | 172 ft | 16 kts | 155° |
| 2026-05-08 20:35 | 29.21882 | 47.97551 | 173 ft | 27 kts | 155° |
| 2026-05-08 20:35 | 29.21704 | 47.97646 | 175 ft | 28 kts | 155° |
| 2026-05-08 20:35 | 29.21530 | 47.97739 | 177 ft | 27 kts | 155° |
| 2026-05-08 20:36 | 29.21396 | 47.97810 | 179 ft | 11 kts | 154° |
| 2026-05-08 20:36 | 29.21336 | 47.97843 | 180 ft | 8 kts | 154° |
| 2026-05-08 20:36 | 29.21276 | 47.97849 | 180 ft | 8 kts | 207° |
| 2026-05-08 20:36 | 29.21250 | 47.97807 | 181 ft | 5 kts | 248° |
| 2026-05-08 20:37 | 29.21245 | 47.97776 | 182 ft | 4 kts | 266° |
| 2026-05-08 20:37 | 29.21259 | 47.97725 | 196 ft | 6 kts | 300° |
| 2026-05-08 20:37 | 29.21271 | 47.97702 | 200 ft | 1 kts | 299° |
| 2026-05-08 20:37 | 29.21291 | 47.97660 | 194 ft | 10 kts | 299° |
| 2026-05-08 20:38 | 29.21346 | 47.97594 | 187 ft | 13 kts | 334° |
| 2026-05-08 20:38 | 29.21476 | 47.97525 | 188 ft | 44 kts | 335° |
| 2026-05-08 20:38 | 29.21969 | 47.97262 | 183 ft | 109 kts | 335° |
| 2026-05-08 20:38 | 29.22823 | 47.96806 | 178 ft | 160 kts | 334° |
| 2026-05-08 20:39 | 29.23875 | 47.96246 | 678 ft | 167 kts | 336° |
| 2026-05-08 20:39 | 29.24924 | 47.95688 | 1326 ft | 165 kts | 337° |
| 2026-05-08 20:39 | 29.25962 | 47.95137 | 1909 ft | 166 kts | 337° |
| 2026-05-08 20:39 | 29.27079 | 47.94544 | 2179 ft | 187 kts | 337° |
| 2026-05-08 20:40 | 29.28295 | 47.93896 | 2670 ft | 197 kts | 336° |
| 2026-05-08 20:40 | 29.29557 | 47.93226 | 3279 ft | 202 kts | 336° |
| 2026-05-08 20:40 | 29.30851 | 47.92540 | 3899 ft | 207 kts | 334° |
| 2026-05-08 20:40 | 29.32174 | 47.91836 | 4501 ft | 212 kts | 333° |
| 2026-05-08 20:41 | 29.33495 | 47.91086 | 5071 ft | 216 kts | 322° |
| 2026-05-08 20:41 | 29.34473 | 47.89826 | 5691 ft | 213 kts | 292° |
| 2026-05-08 20:41 | 29.34768 | 47.88181 | 6253 ft | 217 kts | 264° |
| 2026-05-08 20:41 | 29.34289 | 47.86586 | 6837 ft | 221 kts | 238° |
| 2026-05-08 20:42 | 29.33382 | 47.85093 | 7505 ft | 225 kts | 236° |
| 2026-05-08 20:42 | 29.32475 | 47.83615 | 8153 ft | 228 kts | 236° |
| 2026-05-08 20:42 | 29.31562 | 47.82122 | 8815 ft | 231 kts | 236° |
| 2026-05-08 20:42 | 29.30596 | 47.80578 | 9505 ft | 234 kts | 230° |
| 2026-05-08 20:43 | 29.29245 | 47.79535 | 10094 ft | 242 kts | 197° |
| 2026-05-08 20:43 | 29.27529 | 47.79552 | 10452 ft | 264 kts | 163° |
| 2026-05-08 20:43 | 29.25839 | 47.80552 | 10653 ft | 290 kts | 150° |
| 2026-05-08 20:43 | 29.24134 | 47.81891 | 11100 ft | 302 kts | 146° |
| 2026-05-08 20:44 | 29.22436 | 47.83338 | 11757 ft | 307 kts | 145° |
| 2026-05-08 20:44 | 29.20697 | 47.84786 | 12446 ft | 310 kts | 150° |
| 2026-05-08 20:44 | 29.18714 | 47.85942 | 12805 ft | 326 kts | 158° |
| 2026-05-08 20:44 | 29.16559 | 47.87006 | 12945 ft | 348 kts | 159° |
| 2026-05-08 20:45 | 29.14245 | 47.88084 | 13074 ft | 370 kts | 160° |
| 2026-05-08 20:45 | 29.12639 | 47.88814 | 13186 ft | 382 kts | 160° |
| 2026-05-08 20:45 | 29.09282 | 47.90333 | 13833 ft | 392 kts | 160° |
| 2026-05-08 20:45 | 29.06735 | 47.91496 | 14380 ft | 396 kts | 160° |
| 2026-05-08 20:46 | 29.04175 | 47.92678 | 14948 ft | 399 kts | 160° |
| 2026-05-08 20:46 | 29.01584 | 47.93883 | 15525 ft | 403 kts | 160° |
| 2026-05-08 20:46 | 28.99017 | 47.95078 | 16079 ft | 406 kts | 160° |
| 2026-05-08 20:46 | 28.96388 | 47.96303 | 16656 ft | 410 kts | 161° |
| 2026-05-08 20:47 | 28.93670 | 47.97273 | 17217 ft | 410 kts | 171° |
| 2026-05-08 20:47 | 28.90849 | 47.97711 | 17784 ft | 409 kts | 180° |
| 2026-05-08 20:47 | 28.87994 | 47.97797 | 18339 ft | 412 kts | 181° |
| 2026-05-08 20:47 | 28.85124 | 47.97880 | 18854 ft | 413 kts | 182° |
| 2026-05-08 20:48 | 28.82247 | 47.97968 | 19395 ft | 414 kts | 182° |
| 2026-05-08 20:48 | 28.79369 | 47.98064 | 19941 ft | 414 kts | 182° |
| 2026-05-08 20:48 | 28.76491 | 47.98161 | 20475 ft | 414 kts | 182° |
| 2026-05-08 20:48 | 28.73617 | 47.98181 | 20999 ft | 412 kts | 187° |
| 2026-05-08 20:49 | 28.70799 | 47.97719 | 21500 ft | 408 kts | 196° |
| 2026-05-08 20:49 | 28.68115 | 47.96727 | 21991 ft | 405 kts | 205° |
| 2026-05-08 20:49 | 28.65628 | 47.95250 | 22470 ft | 403 kts | 214° |
| 2026-05-08 20:49 | 28.63316 | 47.93460 | 22925 ft | 403 kts | 215° |